Terminal Aerodrome Forecast
Issued by NWS State College, PA

Home | Current Version | Previous Version | Text Only | Print | Product List | Glossary On
Versions: 1 2 3 4 5 6 7 8 9 10 11 12 13 14 15 16 17 18 19 20 21 22 23 24 25 26 27 28 29
000
FTUS41 KCTP 040042 AAA
TAFIPT
TAF AMD
KIPT 040042Z 0401/0424 08005KT P6SM BKN050
     FM040400 33002KT 6SM BR OVC025
     FM040600 15003KT 4SM BR OVC007
     FM041400 11004KT 2SM -RA BR OVC015=

USA.gov is the U.S. government's official web portal to all federal, state and local government web resources and services.